Time;durP1;ratioP1;P1;durP2;ratioP2;P2;SDS_P1;SDS_P2;PMS_P1;PMS_P2;Temp;Humidity;BMP_temperature;BMP_pressure;BME280_temperature;BME280_humidity;BME280_pressure;Samples;Min_cycle;Max_cycle;Signal;HPM_P1;HPM_P2
2022/06/27 00:01:48;;;;;;;;;;;18.10;99.90;;;;;;5073357;28;19909;-74
2022/06/27 00:04:14;;;;;;;;;;;18.10;99.90;;;;;;5073565;28;19951;-74
2022/06/27 00:06:39;;;;;;;;;;;18.00;99.90;;;;;;5073914;28;20011;-74
2022/06/27 00:09:05;;;;;;;;;;;17.60;99.90;;;;;;5073985;28;19908;-75
2022/06/27 00:11:30;;;;;;;;;;;17.40;99.90;;;;;;5073573;28;19954;-76
2022/06/27 00:13:56;;;;;;;;;;;17.10;99.90;;;;;;5068871;28;19909;-75
2022/06/27 00:16:21;;;;;;;;;;;16.90;99.90;;;;;;5073816;28;19908;-75
2022/06/27 00:18:47;;;;;;;;;;;16.60;99.90;;;;;;5073842;28;19909;-75
2022/06/27 00:21:12;;;;;;;;;;;16.50;99.90;;;;;;5073754;28;19909;-77
2022/06/27 00:23:38;;;;;;;;;;;16.30;99.90;;;;;;5072862;28;20320;-75
2022/06/27 00:26:03;;;;;;;;;;;16.20;99.90;;;;;;5073620;28;20420;-75
2022/06/27 00:28:29;;;;;;;;;;;16.20;99.90;;;;;;5073646;28;19909;-76
2022/06/27 00:30:54;;;;;;;;;;;16.10;99.90;;;;;;5073362;28;20043;-76
2022/06/27 00:33:20;;;;;;;;;;;16.10;99.90;;;;;;5072684;28;20290;-78
2022/06/27 00:35:46;;;;;;;;;;;16.00;99.90;;;;;;5073860;28;19908;-78
2022/06/27 00:38:11;;;;;;;;;;;16.00;99.90;;;;;;5073690;28;19916;-79
2022/06/27 00:40:37;;;;;;;;;;;16.10;99.90;;;;;;5072222;28;19924;-79
2022/06/27 00:43:02;;;;;;;;;;;16.10;99.90;;;;;;5072624;28;19917;-78
2022/06/27 00:45:28;;;;;;;;;;;16.10;99.90;;;;;;5077389;28;19961;-79
2022/06/27 00:47:54;;;;;;;;;;;16.00;99.90;;;;;;5073318;28;19954;-78
2022/06/27 00:50:19;;;;;;;;;;;16.00;99.90;;;;;;5072047;28;19940;-78
2022/06/27 00:52:45;;;;;;;;;;;16.00;99.90;;;;;;5071417;28;20350;-78
2022/06/27 00:55:12;;;;;;;;;;;15.90;99.90;;;;;;5073029;28;19956;-78
2022/06/27 00:57:38;;;;;;;;;;;15.80;99.90;;;;;;5073247;28;20169;-78
2022/06/27 01:00:05;;;;;;;;;;;15.90;99.90;;;;;;5071884;28;19916;-78
2022/06/27 01:02:30;;;;;;;;;;;15.80;99.90;;;;;;5072659;28;19999;-77
2022/06/27 01:04:56;;;;;;;;;;;15.80;99.90;;;;;;5072512;28;19950;-77
2022/06/27 01:07:22;;;;;;;;;;;15.70;99.90;;;;;;5071016;28;19920;-79
2022/06/27 01:09:47;;;;;;;;;;;15.70;99.90;;;;;;5073096;28;20445;-76
2022/06/27 01:12:13;;;;;;;;;;;15.60;99.90;;;;;;5070938;28;20050;-76
2022/06/27 01:14:38;;;;;;;;;;;15.50;99.90;;;;;;5071147;28;20262;-76
2022/06/27 01:17:04;;;;;;;;;;;15.60;99.90;;;;;;5072242;28;19908;-77
2022/06/27 01:19:30;;;;;;;;;;;15.50;99.90;;;;;;5072660;28;19909;-75
2022/06/27 01:21:56;;;;;;;;;;;15.50;99.90;;;;;;5072261;28;19931;-75
2022/06/27 01:24:22;;;;;;;;;;;15.50;99.90;;;;;;5071922;28;20007;-75
2022/06/27 01:26:48;;;;;;;;;;;15.60;99.90;;;;;;5071117;28;20288;-75
2022/06/27 01:29:14;;;;;;;;;;;15.50;99.90;;;;;;5072511;28;19962;-75
2022/06/27 01:31:40;;;;;;;;;;;15.50;99.90;;;;;;5071787;28;19939;-75
2022/06/27 01:34:06;;;;;;;;;;;15.50;99.90;;;;;;5072104;28;20096;-75
2022/06/27 01:36:44;;;;;;;;;;;15.50;99.90;;;;;;5072163;28;19908;-75
2022/06/27 01:39:10;;;;;;;;;;;15.50;99.90;;;;;;5071077;28;19908;-75
2022/06/27 01:41:40;;;;;;;;;;;15.50;99.90;;;;;;5071772;28;20445;-75
2022/06/27 01:44:07;;;;;;;;;;;15.40;99.90;;;;;;5071307;28;20285;-75
2022/06/27 01:46:41;;;;;;;;;;;15.40;99.90;;;;;;5071612;28;20285;-75
2022/06/27 01:49:07;;;;;;;;;;;15.40;99.90;;;;;;5072033;28;19908;-75
2022/06/27 01:51:33;;;;;;;;;;;15.30;99.90;;;;;;5071592;28;20391;-75
2022/06/27 01:53:58;;;;;;;;;;;15.40;99.90;;;;;;5071009;28;20323;-75
2022/06/27 01:56:24;;;;;;;;;;;15.40;99.90;;;;;;5071639;28;19916;-75
2022/06/27 01:58:52;;;;;;;;;;;15.40;99.90;;;;;;5071934;28;19908;-76
2022/06/27 02:01:18;;;;;;;;;;;15.40;99.90;;;;;;5071142;28;20327;-75
2022/06/27 02:03:44;;;;;;;;;;;15.40;99.90;;;;;;5070014;28;19908;-76
2022/06/27 02:06:10;;;;;;;;;;;15.40;99.90;;;;;;5070412;28;20010;-75
2022/06/27 02:08:40;;;;;;;;;;;15.30;99.90;;;;;;5071654;28;19908;-75
2022/06/27 02:11:05;;;;;;;;;;;15.30;99.90;;;;;;5070080;28;19915;-76
2022/06/27 02:13:31;;;;;;;;;;;15.30;99.90;;;;;;5070277;28;19908;-76
2022/06/27 02:16:05;;;;;;;;;;;15.20;99.90;;;;;;5071294;28;19909;-75
2022/06/27 02:18:31;;;;;;;;;;;15.30;99.90;;;;;;5071456;28;19908;-75
2022/06/27 02:20:57;;;;;;;;;;;15.30;99.90;;;;;;5070734;28;20397;-75
2022/06/27 02:23:23;;;;;;;;;;;15.20;99.90;;;;;;5070612;28;19916;-75
2022/06/27 02:25:49;;;;;;;;;;;15.20;99.90;;;;;;5071185;28;19925;-75
2022/06/27 02:28:15;;;;;;;;;;;15.30;99.90;;;;;;5071606;28;19909;-75
2022/06/27 02:30:41;;;;;;;;;;;15.30;99.90;;;;;;5071108;28;19913;-75
2022/06/27 02:33:06;;;;;;;;;;;15.10;99.90;;;;;;5070355;28;20428;-75
2022/06/27 02:35:32;;;;;;;;;;;15.10;99.90;;;;;;5071262;28;19961;-75
2022/06/27 02:37:59;;;;;;;;;;;15.10;99.90;;;;;;5071297;28;19948;-75
2022/06/27 02:40:25;;;;;;;;;;;15.10;99.90;;;;;;5071144;28;19915;-75
2022/06/27 02:42:51;;;;;;;;;;;15.20;99.90;;;;;;5067746;28;19908;-75
2022/06/27 02:45:17;;;;;;;;;;;15.20;99.90;;;;;;5070415;28;19909;-75
2022/06/27 02:47:43;;;;;;;;;;;15.10;99.90;;;;;;5070815;28;20061;-75
2022/06/27 02:50:10;;;;;;;;;;;15.10;99.90;;;;;;5071212;28;19915;-75
2022/06/27 02:52:38;;;;;;;;;;;15.10;99.90;;;;;;5070649;28;19909;-75
2022/06/27 02:55:07;;;;;;;;;;;15.10;99.90;;;;;;5070473;28;19909;-75
2022/06/27 02:57:40;;;;;;;;;;;15.10;99.90;;;;;;5071137;28;19916;-75
2022/06/27 03:00:07;;;;;;;;;;;15.20;99.90;;;;;;5071318;28;20136;-75
2022/06/27 03:02:33;;;;;;;;;;;15.20;99.90;;;;;;5070396;28;19989;-75
2022/06/27 03:04:58;;;;;;;;;;;15.30;99.90;;;;;;5070425;28;19909;-75
2022/06/27 03:07:24;;;;;;;;;;;15.40;99.90;;;;;;5070756;28;19916;-75
2022/06/27 03:09:49;;;;;;;;;;;15.40;99.90;;;;;;5070944;28;19913;-75
2022/06/27 03:12:16;;;;;;;;;;;15.30;99.90;;;;;;5068727;28;20385;-75
2022/06/27 03:14:41;;;;;;;;;;;15.30;99.90;;;;;;5066821;28;19935;-75
2022/06/27 03:17:07;;;;;;;;;;;15.40;99.90;;;;;;5070760;28;19912;-76
2022/06/27 03:19:32;;;;;;;;;;;15.30;99.90;;;;;;5070855;28;19912;-75
2022/06/27 03:21:58;;;;;;;;;;;15.40;99.90;;;;;;5070325;28;19931;-75
2022/06/27 03:24:23;;;;;;;;;;;15.30;99.90;;;;;;5070183;28;19916;-75
2022/06/27 03:26:49;;;;;;;;;;;15.30;99.90;;;;;;5070683;28;20003;-75
2022/06/27 03:29:15;;;;;;;;;;;15.30;99.90;;;;;;5070844;28;19924;-75
2022/06/27 03:31:40;;;;;;;;;;;15.30;99.90;;;;;;5071886;28;20456;-75
2022/06/27 03:34:06;;;;;;;;;;;15.40;99.90;;;;;;5074642;28;19912;-75
2022/06/27 03:36:31;;;;;;;;;;;15.50;99.90;;;;;;5074464;28;19956;-75
2022/06/27 03:38:57;;;;;;;;;;;15.50;99.90;;;;;;5074508;28;20007;-76
2022/06/27 03:41:22;;;;;;;;;;;15.50;99.90;;;;;;5074143;28;19909;-75
2022/06/27 03:43:48;;;;;;;;;;;15.50;99.90;;;;;;5072981;28;19920;-75
2022/06/27 03:46:13;;;;;;;;;;;15.50;99.90;;;;;;5073955;28;19973;-75
2022/06/27 03:51:23;;;;;;;;;;;15.40;99.90;;;;;;5074016;28;19936;-74
2022/06/27 03:53:49;;;;;;;;;;;15.40;99.90;;;;;;5073728;28;20226;-75
2022/06/27 03:56:14;;;;;;;;;;;15.40;99.90;;;;;;5074187;28;19916;-75
2022/06/27 03:58:40;;;;;;;;;;;15.40;99.90;;;;;;5074108;28;19915;-75
2022/06/27 04:01:05;;;;;;;;;;;15.40;99.90;;;;;;5073887;28;19908;-75
2022/06/27 04:03:31;;;;;;;;;;;15.40;99.90;;;;;;5073045;28;19961;-75
2022/06/27 04:05:56;;;;;;;;;;;15.40;99.90;;;;;;5073903;28;19999;-75
2022/06/27 04:08:22;;;;;;;;;;;15.50;99.90;;;;;;5073949;28;19915;-75
2022/06/27 04:10:47;;;;;;;;;;;15.50;99.90;;;;;;5074154;28;20358;-75
2022/06/27 04:13:13;;;;;;;;;;;15.60;99.90;;;;;;5069480;28;19913;-75
2022/06/27 04:15:39;;;;;;;;;;;15.60;99.90;;;;;;5075108;28;19958;-75
2022/06/27 04:18:04;;;;;;;;;;;15.60;99.90;;;;;;5072141;28;20408;-75
2022/06/27 04:20:30;;;;;;;;;;;15.50;99.90;;;;;;5073923;28;19909;-75
2022/06/27 04:22:56;;;;;;;;;;;15.60;99.90;;;;;;5073030;28;20007;-75
2022/06/27 04:25:21;;;;;;;;;;;15.60;99.90;;;;;;5071450;28;19959;-75
2022/06/27 04:27:47;;;;;;;;;;;15.70;99.90;;;;;;5073196;28;19956;-75
2022/06/27 04:30:16;;;;;;;;;;;15.70;99.90;;;;;;5073645;28;19995;-75
2022/06/27 04:32:45;;;;;;;;;;;15.70;99.90;;;;;;5071299;28;20365;-75
2022/06/27 04:35:11;;;;;;;;;;;15.70;99.90;;;;;;5072971;28;19916;-75
2022/06/27 04:37:41;;;;;;;;;;;15.70;99.90;;;;;;5072053;28;19909;-75
2022/06/27 04:40:08;;;;;;;;;;;15.70;99.90;;;;;;5073500;28;20361;-75
2022/06/27 04:42:33;;;;;;;;;;;15.70;99.90;;;;;;5071923;28;19908;-75
2022/06/27 04:44:59;;;;;;;;;;;15.80;99.90;;;;;;5072763;28;19937;-75
2022/06/27 04:47:24;;;;;;;;;;;15.80;99.90;;;;;;5072906;28;19916;-75
2022/06/27 04:49:50;;;;;;;;;;;15.90;99.90;;;;;;5073684;28;19909;-75
2022/06/27 04:52:16;;;;;;;;;;;16.00;99.90;;;;;;5072892;28;19948;-75
2022/06/27 04:54:43;;;;;;;;;;;16.00;99.90;;;;;;5072618;28;19909;-75
2022/06/27 04:57:09;;;;;;;;;;;16.10;99.90;;;;;;5073097;28;20022;-75
2022/06/27 04:59:34;;;;;;;;;;;16.10;99.90;;;;;;5073141;28;19912;-75
2022/06/27 05:02:00;;;;;;;;;;;16.30;99.90;;;;;;5072149;28;19912;-75
2022/06/27 05:04:28;;;;;;;;;;;16.50;99.90;;;;;;5072390;28;19908;-75
2022/06/27 05:06:55;;;;;;;;;;;16.60;99.90;;;;;;5072665;28;20361;-75
2022/06/27 05:09:21;;;;;;;;;;;16.60;99.90;;;;;;5071571;28;19954;-75
2022/06/27 05:11:50;;;;;;;;;;;16.70;99.90;;;;;;5072322;28;19909;-75
2022/06/27 05:14:16;;;;;;;;;;;16.70;99.90;;;;;;5064661;28;20266;-75
2022/06/27 05:16:41;;;;;;;;;;;17.00;99.90;;;;;;5072087;28;19915;-75
2022/06/27 05:19:07;;;;;;;;;;;17.10;99.90;;;;;;5072420;28;19909;-75
2022/06/27 05:21:32;;;;;;;;;;;17.00;99.90;;;;;;5071963;28;20301;-75
2022/06/27 05:23:58;;;;;;;;;;;16.90;99.90;;;;;;5072114;28;19920;-75
2022/06/27 05:26:23;;;;;;;;;;;17.00;99.90;;;;;;5072756;28;19919;-74
2022/06/27 05:28:49;;;;;;;;;;;17.20;99.90;;;;;;5072530;28;19908;-75
2022/06/27 05:31:14;;;;;;;;;;;17.20;99.90;;;;;;5071646;28;20279;-74
2022/06/27 05:33:41;;;;;;;;;;;17.10;99.90;;;;;;5071769;28;19916;-74
2022/06/27 05:36:06;;;;;;;;;;;17.10;99.90;;;;;;5072267;28;20022;-75
2022/06/27 05:38:32;;;;;;;;;;;17.30;99.90;;;;;;5072376;28;19908;-75
2022/06/27 05:40:59;;;;;;;;;;;17.30;99.90;;;;;;5072224;28;19960;-74
2022/06/27 05:43:24;;;;;;;;;;;17.30;99.90;;;;;;5070894;28;19966;-75
2022/06/27 05:45:50;;;;;;;;;;;17.10;99.90;;;;;;5070439;28;19912;-74
2022/06/27 05:48:16;;;;;;;;;;;17.10;99.90;;;;;;5070729;28;20281;-74
2022/06/27 05:50:41;;;;;;;;;;;16.90;99.90;;;;;;5070965;28;20353;-75
2022/06/27 05:53:07;;;;;;;;;;;17.00;99.90;;;;;;5070971;28;19909;-75
2022/06/27 05:55:33;;;;;;;;;;;17.00;99.90;;;;;;5072035;28;20358;-75
2022/06/27 05:58:00;;;;;;;;;;;17.00;99.90;;;;;;5071026;28;20285;-75
2022/06/27 06:00:27;;;;;;;;;;;16.90;99.90;;;;;;5072008;28;20046;-74
2022/06/27 06:02:53;;;;;;;;;;;17.00;99.90;;;;;;5069767;28;19909;-75
2022/06/27 06:05:19;;;;;;;;;;;16.90;99.90;;;;;;5071139;28;19915;-75
2022/06/27 06:07:45;;;;;;;;;;;17.00;99.90;;;;;;5071964;28;19913;-75
2022/06/27 06:10:11;;;;;;;;;;;17.00;99.90;;;;;;5071704;28;19992;-75
2022/06/27 06:12:37;;;;;;;;;;;16.90;99.90;;;;;;5071030;28;20366;-75
2022/06/27 06:15:03;;;;;;;;;;;17.00;99.90;;;;;;5070522;28;19916;-75
2022/06/27 06:17:31;;;;;;;;;;;17.20;99.90;;;;;;5069843;28;19905;-75
2022/06/27 06:19:57;;;;;;;;;;;17.20;99.90;;;;;;5070269;28;19974;-75
2022/06/27 06:22:23;;;;;;;;;;;17.20;99.90;;;;;;5071199;28;19916;-74
2022/06/27 06:24:49;;;;;;;;;;;17.40;99.90;;;;;;5070595;28;19923;-74
2022/06/27 06:27:19;;;;;;;;;;;17.00;99.90;;;;;;5066200;28;19912;-74
2022/06/27 06:29:45;;;;;;;;;;;17.50;99.90;;;;;;5075853;28;19916;-75
2022/06/27 06:32:11;;;;;;;;;;;18.30;99.90;;;;;;5061205;28;20020;-75
2022/06/27 06:34:37;;;;;;;;;;;18.90;99.90;;;;;;5067118;28;19916;-75
2022/06/27 06:37:03;;;;;;;;;;;19.00;99.90;;;;;;5062716;28;20392;-74
2022/06/27 06:39:29;;;;;;;;;;;18.70;99.90;;;;;;5070866;28;19908;-75
2022/06/27 06:41:54;;;;;;;;;;;18.70;99.90;;;;;;5070296;28;19909;-75
2022/06/27 06:44:21;;;;;;;;;;;19.10;99.90;;;;;;5071297;28;20005;-75
2022/06/27 06:46:47;;;;;;;;;;;18.50;99.90;;;;;;5066353;28;19912;-75
2022/06/27 06:49:12;;;;;;;;;;;19.40;99.90;;;;;;5071001;28;19909;-75
2022/06/27 06:51:39;;;;;;;;;;;20.50;99.90;;;;;;5070774;28;20274;-75
2022/06/27 06:54:06;;;;;;;;;;;20.20;99.90;;;;;;5069858;28;20301;-74
2022/06/27 06:56:32;;;;;;;;;;;20.70;99.90;;;;;;5069072;28;19916;-74
2022/06/27 06:58:58;;;;;;;;;;;21.30;99.90;;;;;;5071045;28;19957;-74
2022/06/27 07:01:24;;;;;;;;;;;21.90;99.90;;;;;;5069920;28;19947;-74
2022/06/27 07:03:50;;;;;;;;;;;22.40;99.90;;;;;;5070448;28;19909;-75
2022/06/27 07:06:17;;;;;;;;;;;22.30;99.90;;;;;;5070946;28;19912;-75
2022/06/27 07:08:44;;;;;;;;;;;22.90;99.90;;;;;;5073896;28;19908;-75
2022/06/27 07:11:10;;;;;;;;;;;22.70;99.90;;;;;;5075097;28;19948;-74
2022/06/27 07:13:37;;;;;;;;;;;21.80;99.90;;;;;;5069377;28;19912;-74
2022/06/27 07:16:05;;;;;;;;;;;22.10;99.90;;;;;;5074088;28;19908;-74
2022/06/27 07:18:32;;;;;;;;;;;21.30;99.90;;;;;;5076103;28;19909;-74
2022/06/27 07:20:59;;;;;;;;;;;21.90;99.90;;;;;;5076425;28;20054;-74
2022/06/27 07:23:24;;;;;;;;;;;22.50;99.90;;;;;;5075006;28;20712;-75
2022/06/27 07:25:50;;;;;;;;;;;22.70;99.90;;;;;;5076063;28;20388;-74
2022/06/27 07:28:15;;;;;;;;;;;22.80;99.90;;;;;;5076097;28;20003;-75
2022/06/27 07:30:42;;;;;;;;;;;24.30;99.90;;;;;;5075231;28;19997;-75
2022/06/27 07:33:08;;;;;;;;;;;23.90;99.90;;;;;;5074349;28;19916;-74
2022/06/27 07:35:34;;;;;;;;;;;22.60;99.90;;;;;;5067619;28;19912;-75
2022/06/27 07:38:01;;;;;;;;;;;22.20;99.90;;;;;;5073297;28;19908;-74
2022/06/27 07:40:26;;;;;;;;;;;21.80;99.90;;;;;;5073981;28;19931;-74
2022/06/27 07:42:53;;;;;;;;;;;21.40;99.90;;;;;;5073380;28;20022;-75
2022/06/27 07:45:20;;;;;;;;;;;21.20;99.90;;;;;;5075793;28;19908;-75
2022/06/27 07:47:48;;;;;;;;;;;21.00;99.90;;;;;;5069247;28;19956;-75
2022/06/27 07:53:11;;;;;;;;;;;20.50;99.90;;;;;;5073488;28;19915;-74
2022/06/27 07:55:39;;;;;;;;;;;20.60;99.90;;;;;;5073417;28;19908;-74
2022/06/27 07:58:06;;;;;;;;;;;21.10;99.90;;;;;;5073251;28;19908;-74
2022/06/27 08:00:31;;;;;;;;;;;21.40;99.90;;;;;;5072549;28;19920;-75
2022/06/27 08:02:57;;;;;;;;;;;21.40;99.90;;;;;;5072634;28;20331;-75
2022/06/27 08:05:22;;;;;;;;;;;21.20;99.90;;;;;;5072902;28;19919;-75
2022/06/27 08:07:49;;;;;;;;;;;21.00;99.90;;;;;;5073830;28;19963;-75
2022/06/27 08:10:15;;;;;;;;;;;21.40;99.90;;;;;;5073562;28;19909;-74
2022/06/27 08:12:40;;;;;;;;;;;21.40;99.90;;;;;;5070844;28;19919;-75
2022/06/27 08:15:06;;;;;;;;;;;21.20;99.90;;;;;;5072766;28;19920;-75
2022/06/27 08:17:32;;;;;;;;;;;21.50;99.90;;;;;;5073167;28;20297;-75
2022/06/27 08:19:58;;;;;;;;;;;21.60;99.90;;;;;;5073461;28;19913;-74
2022/06/27 08:22:24;;;;;;;;;;;21.70;99.90;;;;;;5072883;28;19912;-74
2022/06/27 08:24:50;;;;;;;;;;;21.40;99.90;;;;;;5072959;28;19924;-74
2022/06/27 08:27:15;;;;;;;;;;;21.20;99.90;;;;;;5072954;28;19912;-74
2022/06/27 08:29:41;;;;;;;;;;;21.50;99.90;;;;;;5073023;28;19919;-74
2022/06/27 08:32:07;;;;;;;;;;;22.60;99.90;;;;;;5072837;28;20000;-74
2022/06/27 08:34:33;;;;;;;;;;;22.50;99.90;;;;;;5071219;28;20027;-74
2022/06/27 08:36:59;;;;;;;;;;;22.30;99.90;;;;;;5067234;28;19916;-74
2022/06/27 08:39:25;;;;;;;;;;;22.00;99.90;;;;;;5072852;28;19930;-74
2022/06/27 08:41:51;;;;;;;;;;;22.20;99.90;;;;;;5072151;28;19950;-74
2022/06/27 08:44:17;;;;;;;;;;;22.20;99.90;;;;;;5067873;28;19959;-76
2022/06/27 08:46:46;;;;;;;;;;;22.10;99.90;;;;;;5070623;28;19920;-75
2022/06/27 08:49:14;;;;;;;;;;;22.20;99.90;;;;;;5066632;28;19912;-75
2022/06/27 08:51:41;;;;;;;;;;;22.20;99.90;;;;;;5072569;28;19914;-75
2022/06/27 08:54:07;;;;;;;;;;;21.90;99.90;;;;;;5073493;28;20377;-75
2022/06/27 08:56:33;;;;;;;;;;;21.90;99.90;;;;;;5074305;28;19965;-75
2022/06/27 08:58:59;;;;;;;;;;;22.00;99.90;;;;;;5068027;28;20309;-75
2022/06/27 09:01:27;;;;;;;;;;;21.80;99.90;;;;;;5072412;28;20374;-75
2022/06/27 09:04:00;;;;;;;;;;;21.30;99.90;;;;;;5071647;28;19915;-75
2022/06/27 09:06:33;;;;;;;;;;;21.00;99.90;;;;;;5072486;28;19938;-74
2022/06/27 09:09:06;;;;;;;;;;;20.80;99.90;;;;;;5073058;28;19959;-75
2022/06/27 09:11:34;;;;;;;;;;;20.70;99.90;;;;;;5072731;28;19915;-75
2022/06/27 09:14:00;;;;;;;;;;;20.70;99.90;;;;;;5073153;28;20374;-75
2022/06/27 09:16:26;;;;;;;;;;;20.80;99.90;;;;;;5073409;28;20269;-75
2022/06/27 09:18:53;;;;;;;;;;;20.70;99.90;;;;;;5073138;28;19909;-75
2022/06/27 09:21:18;;;;;;;;;;;20.90;99.90;;;;;;5072668;28;20393;-74
2022/06/27 09:23:55;;;;;;;;;;;20.60;99.90;;;;;;5071941;28;19924;-75
2022/06/27 09:26:28;;;;;;;;;;;20.70;99.90;;;;;;5072231;28;19916;-74
2022/06/27 09:28:58;;;;;;;;;;;20.70;99.90;;;;;;5072825;28;19909;-75
2022/06/27 09:31:26;;;;;;;;;;;21.10;99.90;;;;;;5072705;28;19967;-75
2022/06/27 09:34:05;;;;;;;;;;;21.40;99.90;;;;;;5072150;28;20020;-75
2022/06/27 09:36:32;;;;;;;;;;;21.50;99.90;;;;;;5072542;28;19959;-75
2022/06/27 09:38:59;;;;;;;;;;;21.50;99.90;;;;;;5083341;28;19908;-75
2022/06/27 09:41:26;;;;;;;;;;;21.40;99.90;;;;;;5072244;28;20281;-75
2022/06/27 09:43:52;;;;;;;;;;;21.10;99.90;;;;;;5070709;28;20007;-77
2022/06/27 09:46:18;;;;;;;;;;;21.00;99.90;;;;;;5070418;28;20011;-75
2022/06/27 09:48:45;;;;;;;;;;;20.90;99.90;;;;;;5072847;28;19931;-75
2022/06/27 09:51:15;;;;;;;;;;;20.80;99.90;;;;;;5071760;28;19908;-74
2022/06/27 09:53:44;;;;;;;;;;;20.80;99.90;;;;;;5071221;28;19923;-74
2022/06/27 09:56:10;;;;;;;;;;;20.70;99.90;;;;;;5069214;28;20388;-74
2022/06/27 09:58:37;;;;;;;;;;;20.10;99.90;;;;;;5070237;28;20437;-74
2022/06/27 10:01:04;;;;;;;;;;;20.10;99.90;;;;;;5068227;28;20031;-74
2022/06/27 10:03:31;;;;;;;;;;;20.20;99.90;;;;;;5072363;28;19973;-74
2022/06/27 10:05:58;;;;;;;;;;;20.10;99.90;;;;;;5069440;28;19908;-74
2022/06/27 10:08:23;;;;;;;;;;;20.20;99.90;;;;;;5071721;28;19916;-72
2022/06/27 10:11:01;;;;;;;;;;;20.30;99.90;;;;;;5071703;28;20319;-74
2022/06/27 10:13:30;;;;;;;;;;;20.20;99.90;;;;;;5064546;28;20385;-75
2022/06/27 10:15:57;;;;;;;;;;;20.30;99.90;;;;;;5070252;28;19915;-74
2022/06/27 10:18:23;;;;;;;;;;;20.10;99.90;;;;;;5072337;28;19908;-74
2022/06/27 10:20:51;;;;;;;;;;;20.10;99.90;;;;;;5072204;28;19970;-74
2022/06/27 10:23:19;;;;;;;;;;;20.10;99.90;;;;;;5071433;28;19916;-74
2022/06/27 10:25:45;;;;;;;;;;;20.10;99.90;;;;;;5071513;28;19909;-74
2022/06/27 10:28:14;;;;;;;;;;;20.10;99.90;;;;;;5072242;28;19912;-74
2022/06/27 10:30:42;;;;;;;;;;;20.20;99.90;;;;;;5065980;28;20011;-74
2022/06/27 10:33:22;;;;;;;;;;;20.30;99.90;;;;;;5067669;28;19915;-73
2022/06/27 10:38:38;;;;;;;;;;;20.60;99.90;;;;;;5072230;28;20384;-74
2022/06/27 10:41:07;;;;;;;;;;;20.70;99.90;;;;;;5071288;28;19909;-74
2022/06/27 10:43:39;;;;;;;;;;;20.50;99.90;;;;;;5069280;28;20281;-74
2022/06/27 10:46:10;;;;;;;;;;;20.60;99.90;;;;;;5068873;28;19916;-74
2022/06/27 10:48:40;;;;;;;;;;;20.60;99.90;;;;;;5069759;28;20007;-74
2022/06/27 10:51:29;;;;;;;;;;;20.70;99.90;;;;;;5071780;28;19916;-74
2022/06/27 10:54:04;;;;;;;;;;;20.80;99.90;;;;;;5071275;28;19944;-74
2022/06/27 10:56:29;;;;;;;;;;;20.60;99.90;;;;;;5071448;28;19955;-73
2022/06/27 10:58:55;;;;;;;;;;;20.70;99.90;;;;;;5071643;28;20285;-74
2022/06/27 11:01:21;;;;;;;;;;;21.00;99.90;;;;;;5072242;28;19909;-73
2022/06/27 11:03:47;;;;;;;;;;;20.80;99.90;;;;;;5071160;28;19923;-74
2022/06/27 11:06:16;;;;;;;;;;;20.80;99.90;;;;;;5070947;28;20365;-73
2022/06/27 11:08:42;;;;;;;;;;;20.80;99.90;;;;;;5071005;28;19923;-73
2022/06/27 11:11:08;;;;;;;;;;;20.80;99.90;;;;;;5071390;28;19912;-73
2022/06/27 11:13:45;;;;;;;;;;;20.60;99.90;;;;;;5066740;28;19908;-74
2022/06/27 11:16:29;;;;;;;;;;;20.70;99.90;;;;;;5068486;28;20424;-74
2022/06/27 11:18:59;;;;;;;;;;;20.60;99.90;;;;;;5071036;28;19908;-74
2022/06/27 11:21:25;;;;;;;;;;;20.60;99.90;;;;;;5071023;28;19916;-74
2022/06/27 11:23:52;;;;;;;;;;;20.70;99.90;;;;;;5070711;28;19969;-74
2022/06/27 11:26:18;;;;;;;;;;;20.80;99.90;;;;;;5070522;28;19960;-74
2022/06/27 11:34:12;;;;;;;;;;;20.80;99.90;;;;;;5070224;28;20324;-74
2022/06/27 11:36:39;;;;;;;;;;;20.60;99.90;;;;;;5072555;28;19912;-74
2022/06/27 11:39:05;;;;;;;;;;;20.60;99.90;;;;;;5071164;28;20278;-74
2022/06/27 11:41:31;;;;;;;;;;;20.50;99.90;;;;;;5070457;28;19916;-74
2022/06/27 11:43:57;;;;;;;;;;;20.30;99.90;;;;;;5063951;28;19909;-74
2022/06/27 11:46:23;;;;;;;;;;;20.20;99.90;;;;;;5070513;28;19913;-74
2022/06/27 11:49:09;;;;;;;;;;;20.10;99.90;;;;;;5071490;28;19916;-74
2022/06/27 11:51:36;;;;;;;;;;;20.10;99.90;;;;;;5068742;28;19908;-74
2022/06/27 11:54:09;;;;;;;;;;;20.30;99.90;;;;;;5074233;28;20298;-74
2022/06/27 11:56:36;;;;;;;;;;;20.30;99.90;;;;;;5073846;28;19965;-74
2022/06/27 11:59:03;;;;;;;;;;;20.50;99.90;;;;;;5067214;28;19908;-74
2022/06/27 12:01:29;;;;;;;;;;;20.50;99.90;;;;;;5073005;28;20342;-74
2022/06/27 12:04:16;;;;;;;;;;;20.30;99.90;;;;;;5077394;28;19944;-74
2022/06/27 12:06:42;;;;;;;;;;;20.20;99.90;;;;;;5070783;28;19913;-74
2022/06/27 12:09:08;;;;;;;;;;;19.90;99.90;;;;;;5075174;28;19917;-73
2022/06/27 12:11:34;;;;;;;;;;;19.90;99.90;;;;;;5074196;28;19966;-73
2022/06/27 12:14:00;;;;;;;;;;;19.80;99.90;;;;;;5073583;28;19909;-73
2022/06/27 12:16:26;;;;;;;;;;;19.90;99.90;;;;;;5079518;28;19909;-73
2022/06/27 12:18:52;;;;;;;;;;;19.80;99.90;;;;;;5073913;28;19908;-74
2022/06/27 12:21:18;;;;;;;;;;;19.60;99.90;;;;;;5079377;28;19962;-74
2022/06/27 12:23:44;;;;;;;;;;;19.70;99.90;;;;;;5075017;28;19931;-74
2022/06/27 12:26:10;;;;;;;;;;;19.70;99.90;;;;;;5075769;28;19944;-74
2022/06/27 12:28:35;;;;;;;;;;;19.70;99.90;;;;;;5076009;28;19919;-74
2022/06/27 12:31:01;;;;;;;;;;;19.60;99.90;;;;;;5077561;28;19908;-74
2022/06/27 12:33:27;;;;;;;;;;;19.60;99.90;;;;;;5077198;28;19948;-74
2022/06/27 12:35:52;;;;;;;;;;;19.60;99.90;;;;;;5075594;28;20007;-74
2022/06/27 12:38:18;;;;;;;;;;;19.60;99.90;;;;;;5077249;28;19920;-75
2022/06/27 12:40:44;;;;;;;;;;;19.70;99.90;;;;;;5077374;28;19909;-73
2022/06/27 12:43:09;;;;;;;;;;;19.70;99.90;;;;;;5072214;28;19915;-74
2022/06/27 12:45:35;;;;;;;;;;;19.60;99.90;;;;;;5078007;28;20263;-74
2022/06/27 12:48:03;;;;;;;;;;;19.60;99.90;;;;;;5077098;28;19913;-74
2022/06/27 12:50:28;;;;;;;;;;;19.70;99.90;;;;;;5079099;28;19912;-74
2022/06/27 12:52:53;;;;;;;;;;;19.90;99.90;;;;;;5077146;28;19999;-74
2022/06/27 12:55:19;;;;;;;;;;;20.20;99.90;;;;;;5075538;28;19908;-74
2022/06/27 12:57:45;;;;;;;;;;;20.00;99.90;;;;;;5076192;28;19909;-74
2022/06/27 13:00:11;;;;;;;;;;;20.10;99.90;;;;;;5076123;28;20051;-74
2022/06/27 13:02:36;;;;;;;;;;;20.50;99.90;;;;;;5076862;28;19912;-74
2022/06/27 13:05:02;;;;;;;;;;;20.80;99.90;;;;;;5073833;28;19908;-74
2022/06/27 13:07:28;;;;;;;;;;;20.60;99.90;;;;;;5073360;28;20022;-74
2022/06/27 13:09:54;;;;;;;;;;;20.00;99.90;;;;;;5076127;28;19944;-73
2022/06/27 13:12:20;;;;;;;;;;;19.90;99.90;;;;;;5072032;28;19916;-74
2022/06/27 13:14:45;;;;;;;;;;;20.20;99.90;;;;;;5076870;28;20444;-74
2022/06/27 13:17:10;;;;;;;;;;;20.00;99.90;;;;;;5076743;28;19908;-73
2022/06/27 13:19:36;;;;;;;;;;;20.10;99.90;;;;;;5075667;28;19916;-74
2022/06/27 13:22:02;;;;;;;;;;;20.40;99.90;;;;;;5075248;28;19913;-74
2022/06/27 13:24:28;;;;;;;;;;;20.90;99.90;;;;;;5077316;28;19928;-74
2022/06/27 13:26:54;;;;;;;;;;;21.30;99.90;;;;;;5075585;28;19912;-74
2022/06/27 13:29:19;;;;;;;;;;;21.40;99.90;;;;;;5075204;28;19936;-74
2022/06/27 13:31:45;;;;;;;;;;;21.80;99.90;;;;;;5074335;28;20407;-74
2022/06/27 13:34:10;;;;;;;;;;;22.30;99.90;;;;;;5077092;28;19915;-74
2022/06/27 13:36:36;;;;;;;;;;;21.60;99.90;;;;;;5074450;28;19919;-73
2022/06/27 13:39:02;;;;;;;;;;;21.60;99.90;;;;;;5076283;28;19915;-74
2022/06/27 13:41:28;;;;;;;;;;;21.20;99.90;;;;;;5074524;28;19980;-74
2022/06/27 13:43:53;;;;;;;;;;;21.20;99.90;;;;;;5074761;28;19909;-73
2022/06/27 13:46:19;;;;;;;;;;;21.10;99.90;;;;;;5072939;28;19920;-73
2022/06/27 13:48:44;;;;;;;;;;;20.70;99.90;;;;;;5074308;28;19951;-74
2022/06/27 13:51:09;;;;;;;;;;;20.50;99.90;;;;;;5073925;28;19958;-73
2022/06/27 13:53:36;;;;;;;;;;;20.20;99.90;;;;;;5071497;28;19916;-73
2022/06/27 13:56:02;;;;;;;;;;;20.50;99.90;;;;;;5077815;28;20511;-73
2022/06/27 13:58:27;;;;;;;;;;;20.60;99.90;;;;;;5071022;28;19938;-73
2022/06/27 14:00:53;;;;;;;;;;;20.60;99.90;;;;;;5069870;28;20358;-73
2022/06/27 14:03:19;;;;;;;;;;;20.40;99.90;;;;;;5070925;28;19912;-73
2022/06/27 14:05:44;;;;;;;;;;;20.30;99.90;;;;;;5071521;28;19908;-73
2022/06/27 14:08:10;;;;;;;;;;;20.60;99.90;;;;;;5069295;28;19912;-74
2022/06/27 14:10:54;;;;;;;;;;;20.50;99.90;;;;;;5072022;28;19917;-74
2022/06/27 14:13:23;;;;;;;;;;;20.30;99.90;;;;;;5070009;28;19968;-73
2022/06/27 14:15:49;;;;;;;;;;;20.20;99.90;;;;;;5068704;28;19917;-73
2022/06/27 14:18:15;;;;;;;;;;;19.90;99.90;;;;;;5063679;28;19992;-73
2022/06/27 14:20:40;;;;;;;;;;;20.00;99.90;;;;;;5071915;28;19947;-73
2022/06/27 14:23:06;;;;;;;;;;;19.80;99.90;;;;;;5070733;28;19964;-73
2022/06/27 14:25:31;;;;;;;;;;;19.60;99.90;;;;;;5069955;28;20061;-73
2022/06/27 14:27:58;;;;;;;;;;;19.70;99.90;;;;;;5071430;28;19917;-73